Westerly — VG3832 — position and weather

sailwx.info

Track history (hours):
 
Tides and Currents Weather Stations Pressure Air Temp Water Temp Dewpoint Dewpoint Depression Visibility Wind Speed Wind Dir Waves Ship Positions

Westerly

Last reported at 2018-Apr-17 09:54 UTC. Time now 2018-Apr-21 04:10 UTC.
Position N 53°51' W 130°03'.

Length 17 m; draft 3 m.

Type: Fishing. MMSI: 316003050.

Date/timePositionNaut miles runAvg speedWind from/ knotsBaromVisibWave heightAir tempDewpointWater temp
2018-Apr-17 09:54N 53°51' W 130°03'3 7.7
2018-Apr-17 09:31N 53°53' W 130°07'4 7.2
2018-Apr-17 09:01N 53°56' W 130°11'4 7.4
2018-Apr-17 08:31N 53°59' W 130°13'3 6.6
2018-Apr-17 08:01N 54°02' W 130°15'4 7.3
2018-Apr-17 07:31N 54°06' W 130°18'4 7.3
2018-Apr-17 07:00N 54°09' W 130°20'3 5.5
2018-Apr-17 06:30N 54°12' W 130°19'2 3.8
2018-Apr-17 06:00N 54°14' W 130°18'0 0.0
2018-Apr-17 05:30N 54°14' W 130°18'0 0.0
2018-Apr-17 05:00N 54°14' W 130°18'0 0.0
2018-Apr-17 04:30N 54°14' W 130°18'0 0.0
2018-Apr-17 04:00N 54°14' W 130°18'0 0.0
2018-Apr-17 03:30N 54°14' W 130°18'0 0.0
2018-Apr-17 03:01N 54°14' W 130°18'0 0.0
2018-Apr-17 02:31N 54°14' W 130°18'0 0.0
2018-Apr-17 02:00N 54°14' W 130°18'0 0.0
2018-Apr-17 01:30N 54°14' W 130°18'0 0.0
2018-Apr-17 01:00N 54°14' W 130°18'0 0.0
2018-Apr-17 00:30N 54°14' W 130°18'0 0.1
2018-Apr-17 00:01N 54°14' W 130°18'1 1.6
2018-Apr-16 23:29N 54°13' W 130°17'0 0.0
2018-Apr-16 23:00N 54°13' W 130°17'0 0.0
2018-Apr-16 22:30N 54°13' W 130°17'0 0.0
2018-Apr-16 22:00N 54°13' W 130°17'0 0.0
2018-Apr-16 21:31N 54°13' W 130°17'1 1.6
2018-Apr-16 21:01N 54°14' W 130°18'0 0.0
2018-Apr-16 20:30N 54°14' W 130°18'0 0.0
2018-Apr-16 20:00N 54°14' W 130°18'0 0.0
2018-Apr-16 19:30N 54°14' W 130°18'0 0.0
2018-Apr-16 19:00N 54°14' W 130°18'0 0.0
2018-Apr-16 18:30N 54°14' W 130°18'0 0.0
2018-Apr-16 18:01N 54°14' W 130°18'0 0.0
2018-Apr-16 17:30N 54°14' W 130°18'0 0.0
2018-Apr-16 16:59N 54°14' W 130°18'0 0.0
2018-Apr-16 16:30N 54°14' W 130°18'0 0.0
2018-Apr-16 16:01N 54°14' W 130°18'0 0.0
2018-Apr-16 15:30N 54°14' W 130°18'0 0.0
2018-Apr-16 14:59N 54°14' W 130°18'0 0.0
2018-Apr-16 14:31N 54°14' W 130°18'0 0.0
2018-Apr-16 14:00N 54°14' W 130°18'0 0.0
2018-Apr-16 13:30N 54°14' W 130°18'0 0.0
2018-Apr-16 13:01N 54°14' W 130°18'0 0.0
2018-Apr-16 12:30N 54°14' W 130°18'0 0.0
2018-Apr-16 12:01N 54°14' W 130°18'0 0.0
2018-Apr-16 11:31N 54°14' W 130°18'0 0.0
2018-Apr-16 11:00N 54°14' W 130°18'0 0.0
2018-Apr-16 10:30N 54°14' W 130°18'0 0.0
2018-Apr-16 10:01N 54°14' W 130°18'0 0.0
2018-Apr-16 09:30N 54°14' W 130°18'0 0.0
2018-Apr-16 09:00N 54°14' W 130°18'0 0.0
2018-Apr-16 08:31N 54°14' W 130°18'0 0.0
2018-Apr-16 08:00N 54°14' W 130°18'0 0.0
2018-Apr-16 07:30N 54°14' W 130°18'0 0.0
2018-Apr-16 07:00N 54°14' W 130°18'0 0.0
2018-Apr-16 06:29N 54°14' W 130°18'0 0.0
2018-Apr-16 06:00N 54°14' W 130°18'0 0.0
2018-Apr-16 05:31N 54°14' W 130°18'0 0.0
2018-Apr-16 05:00N 54°14' W 130°18'0 0.0
2018-Apr-16 04:29N 54°14' W 130°18'0 0.0
2018-Apr-16 04:01N 54°14' W 130°18'0 0.0
2018-Apr-16 03:30N 54°14' W 130°18'0 0.0
2018-Apr-16 03:00N 54°14' W 130°18'0 0.0
2018-Apr-16 02:30N 54°14' W 130°18'0 0.0
2018-Apr-16 02:00N 54°14' W 130°18'0 0.0
2018-Apr-16 01:30N 54°14' W 130°18'0 0.0
2018-Apr-16 01:00N 54°14' W 130°18'0 0.0
2018-Apr-16 00:31N 54°14' W 130°18'0 0.0
2018-Apr-16 00:00N 54°14' W 130°18'0 0.0
2018-Apr-15 23:31N 54°14' W 130°18'0 0.0
2018-Apr-15 23:00N 54°14' W 130°18'1 1.6
2018-Apr-15 22:30N 54°13' W 130°17'0 0.0
2018-Apr-15 22:00N 54°13' W 130°17'0 0.1
2018-Apr-15 21:30N 54°13' W 130°17'2 3.9
2018-Apr-15 21:00N 54°13' W 130°21'3 6.7
2018-Apr-15 20:30N 54°17' W 130°22'1 0.4
2018-Apr-15 18:38N 54°17' W 130°21'0 0.0
2018-Apr-15 18:28N 54°17' W 130°21'0 0.0
2018-Apr-15 17:59N 54°17' W 130°21'0 0.0
2018-Apr-15 17:30N 54°17' W 130°21'0 0.0
2018-Apr-15 17:00N 54°17' W 130°21'0 0.0
2018-Apr-15 16:30N 54°17' W 130°21'0 0.0
2018-Apr-15 16:00N 54°17' W 130°21'0 0.0
2018-Apr-15 15:30N 54°17' W 130°21'0 0.0
2018-Apr-15 15:00N 54°17' W 130°21'0 0.0
2018-Apr-15 14:30N 54°17' W 130°21'0 0.0
2018-Apr-15 14:00N 54°17' W 130°21'0 0.0
2018-Apr-15 13:30N 54°17' W 130°21'0 0.0
2018-Apr-15 13:00N 54°17' W 130°21'0 0.0
2018-Apr-15 12:29N 54°17' W 130°21'0 0.0
2018-Apr-15 10:21N 54°17' W 130°21'0 0.0
2018-Apr-15 10:00N 54°17' W 130°21'0 0.0
2018-Apr-15 09:29N 54°17' W 130°21'0 0.0
2018-Apr-15 08:59N 54°17' W 130°21'0 0.0
2018-Apr-15 08:28N 54°17' W 130°21'0 0.0
2018-Apr-15 02:14N 54°17' W 130°21'0 0.0
2018-Apr-15 02:00N 54°17' W 130°21'0 0.0
2018-Apr-15 01:28N 54°17' W 130°21'0 0.0
2018-Apr-14 22:19N 54°17' W 130°21'0 0.0
2018-Apr-14 21:36N 54°17' W 130°21'0 0.0
2018-Apr-14 19:54N 54°17' W 130°21'0 0.0
2018-Apr-14 10:40N 54°17' W 130°21'0 0.0
2018-Apr-14 10:16N 54°17' W 130°21'0 0.0
2018-Apr-14 09:50N 54°17' W 130°21'0 0.0
2018-Apr-14 09:23N 54°17' W 130°21'0 0.0
2018-Apr-14 08:59N 54°17' W 130°21'0 0.0
2018-Apr-14 08:30N 54°17' W 130°21'0 0.0
2018-Apr-14 07:59N 54°17' W 130°21'0 0.0
2018-Apr-14 07:07N 54°17' W 130°21'0 0.0
2018-Apr-14 06:58N 54°17' W 130°21'0 0.0
2018-Apr-14 06:29N 54°17' W 130°21'0 0.0
2018-Apr-14 06:01N 54°17' W 130°21'0 0.0
2018-Apr-14 03:12N 54°17' W 130°21'0 0.0
2018-Apr-14 02:56N 54°17' W 130°21'0 0.0
2018-Apr-14 02:26N 54°17' W 130°21'0 0.0
2018-Apr-14 01:59N 54°17' W 130°21'0 0.0
2018-Apr-14 01:27N 54°17' W 130°21'0 0.0
2018-Apr-14 00:59N 54°17' W 130°21'0 0.0
2018-Apr-14 00:29N 54°17' W 130°21'0 0.0
2018-Apr-14 00:00N 54°17' W 130°21'0 0.0
2018-Apr-13 23:28N 54°17' W 130°21'0 0.0
2018-Apr-13 21:47N 54°17' W 130°21'2 5.9
2018-Apr-13 21:30N 54°19' W 130°20'1 1.0
2018-Apr-13 20:54N 54°19' W 130°19'0 0.0
2018-Apr-13 20:30N 54°19' W 130°19'0 0.0
2018-Apr-13 20:00N 54°19' W 130°19'0 0.1
2018-Apr-13 19:30N 54°19' W 130°19'0 0.2
2018-Apr-13 18:59N 54°19' W 130°19'0 0.1
2018-Apr-13 18:31N 54°19' W 130°19'0 0.1
2018-Apr-13 18:00N 54°19' W 130°19'2 4.4
2018-Apr-13 17:30N 54°18' W 130°21'0 0.2
2018-Apr-13 16:30N 54°17' W 130°21'0 0.0
2018-Apr-13 16:00N 54°17' W 130°21'0 0.0
2018-Apr-13 15:28N 54°17' W 130°21'0 0.0
2018-Apr-13 14:49N 54°17' W 130°21'0 0.0
2018-Apr-13 14:28N 54°17' W 130°21'0 0.0
2018-Apr-13 14:00N 54°17' W 130°21'0 0.0
2018-Apr-13 13:30N 54°17' W 130°21'0 0.0
2018-Apr-13 12:59N 54°17' W 130°21'0 0.0
2018-Apr-13 12:23N 54°17' W 130°21'0 0.0
2018-Apr-13 12:00N 54°17' W 130°21'0 0.0
2018-Apr-13 11:30N 54°17' W 130°21'0 0.0
2018-Apr-13 11:00N 54°17' W 130°21'0 0.0
2018-Apr-13 10:28N 54°17' W 130°21'0 0.0
2018-Apr-13 10:00N 54°17' W 130°21'0 0.0
2018-Apr-13 09:30N 54°17' W 130°21'0 0.0
2018-Apr-13 08:59N 54°17' W 130°21'0 0.0
2018-Apr-13 08:30N 54°17' W 130°21'0 0.0
2018-Apr-13 08:00N 54°17' W 130°21'0 0.0
2018-Apr-13 07:30N 54°17' W 130°21'0 0.0
2018-Apr-13 07:00N 54°17' W 130°21'0 0.0
2018-Apr-13 06:30N 54°17' W 130°21'0 0.0
2018-Apr-13 06:00N 54°17' W 130°21'0 0.0
2018-Apr-13 05:30N 54°17' W 130°21'0 0.0
2018-Apr-13 05:00N 54°17' W 130°21'0 0.0
2018-Apr-13 04:29N 54°17' W 130°21'0 0.0
2018-Apr-13 04:00N 54°17' W 130°21'0 0.0
2018-Apr-13 03:30N 54°17' W 130°21'0 0.0
2018-Apr-13 03:00N 54°17' W 130°21'0 0.0
2018-Apr-13 02:26N 54°17' W 130°21'0 0.0
2018-Apr-13 02:00N 54°17' W 130°21'0 0.0
2018-Apr-13 01:29N 54°17' W 130°21'0 0.0
2018-Apr-13 01:00N 54°17' W 130°21'0 0.0
2018-Apr-13 00:27N 54°17' W 130°21'0 0.0
2018-Apr-13 00:00N 54°17' W 130°21'0 0.0
2018-Apr-12 23:30N 54°17' W 130°21'0 0.0
2018-Apr-12 23:00N 54°17' W 130°21'0 0.0
2018-Apr-12 22:30N 54°17' W 130°21'0 0.0
2018-Apr-12 22:00N 54°17' W 130°21'0 0.0
2018-Apr-12 21:30N 54°17' W 130°21'0 0.0
2018-Apr-12 21:00N 54°17' W 130°21'0 0.0
2018-Apr-12 20:30N 54°17' W 130°21'0 0.0
2018-Apr-12 20:00N 54°17' W 130°21'0 0.0
2018-Apr-12 19:30N 54°17' W 130°21'0 0.0
2018-Apr-12 18:59N 54°17' W 130°21'0 0.0
2018-Apr-12 18:29N 54°17' W 130°21'0 0.0
2018-Apr-12 18:00N 54°17' W 130°21'0 0.0
2018-Apr-12 17:30N 54°17' W 130°21'0 0.0
2018-Apr-12 17:00N 54°17' W 130°21'0 0.0
2018-Apr-12 16:29N 54°17' W 130°21'0 0.0
2018-Apr-12 16:00N 54°17' W 130°21'0 0.0
2018-Apr-12 15:30N 54°17' W 130°21'0 0.0
2018-Apr-12 15:00N 54°17' W 130°21'0 0.0
2018-Apr-12 14:30N 54°17' W 130°21'0 0.0
2018-Apr-12 14:00N 54°17' W 130°21'0 0.0
2018-Apr-12 13:29N 54°17' W 130°21'0 0.0
2018-Apr-12 13:00N 54°17' W 130°21'0 0.0
2018-Apr-12 12:29N 54°17' W 130°21'0 0.0
2018-Apr-12 12:00N 54°17' W 130°21'0 0.0
2018-Apr-12 11:30N 54°17' W 130°21'0 0.0
2018-Apr-12 11:00N 54°17' W 130°21'0 0.0
2018-Apr-12 10:30N 54°17' W 130°21'0 0.0
2018-Apr-12 10:00N 54°17' W 130°21'0 0.0
2018-Apr-12 09:30N 54°17' W 130°21'0 0.0
2018-Apr-12 09:00N 54°17' W 130°21'0 0.0
2018-Apr-12 08:28N 54°17' W 130°21'0 0.0
2018-Apr-12 08:00N 54°17' W 130°21'0 0.0
2018-Apr-12 07:30N 54°17' W 130°21'0 0.0
2018-Apr-12 07:00N 54°17' W 130°21'0 0.0
2018-Apr-12 06:30N 54°17' W 130°21'0 0.0
2018-Apr-12 06:00N 54°17' W 130°21'0 0.0
2018-Apr-12 05:30N 54°17' W 130°21'0 0.0
2018-Apr-12 05:00N 54°17' W 130°21'0 0.0
2018-Apr-12 04:30N 54°17' W 130°21'0 0.0
2018-Apr-12 04:00N 54°17' W 130°21'0 0.0
2018-Apr-12 03:30N 54°17' W 130°21'0 0.0
2018-Apr-12 03:00N 54°17' W 130°21'0 0.0
2018-Apr-12 02:30N 54°17' W 130°21'0 0.0
2018-Apr-12 02:00N 54°17' W 130°21'0 0.0
2018-Apr-12 01:30N 54°17' W 130°21'0 0.0
2018-Apr-12 00:58N 54°17' W 130°21'0 0.0
2018-Apr-12 00:30N 54°17' W 130°21'0 0.0
2018-Apr-12 00:00N 54°17' W 130°21'0 0.0
2018-Apr-11 23:29N 54°17' W 130°21'0 0.0
2018-Apr-11 23:00N 54°17' W 130°21'0 0.0
2018-Apr-11 22:30N 54°17' W 130°21'0 0.0
2018-Apr-11 21:59N 54°17' W 130°21'0 0.0
2018-Apr-11 21:30N 54°17' W 130°21'0 0.0
2018-Apr-11 21:00N 54°17' W 130°21'0 0.0
2018-Apr-11 20:30N 54°17' W 130°21'0 0.0
2018-Apr-11 20:00N 54°17' W 130°21'0 0.0
2018-Apr-11 19:29N 54°17' W 130°21'0 0.0
2018-Apr-11 19:00N 54°17' W 130°21'0 0.0
2018-Apr-11 18:30N 54°17' W 130°21'0 0.0
2018-Apr-11 18:00N 54°17' W 130°21'0 0.0
2018-Apr-11 17:30N 54°17' W 130°21'0 0.0
2018-Apr-11 16:58N 54°17' W 130°21'0 0.0
2018-Apr-11 16:30N 54°17' W 130°21'0 0.0
2018-Apr-11 16:00N 54°17' W 130°21'0 0.0
2018-Apr-11 15:30N 54°17' W 130°21'0 0.0
2018-Apr-11 15:00N 54°17' W 130°21'0 0.0
2018-Apr-11 14:30N 54°17' W 130°21'0 0.0
2018-Apr-11 13:59N 54°17' W 130°21'0 0.0
2018-Apr-11 13:30N 54°17' W 130°21'0 0.0
2018-Apr-11 13:00N 54°17' W 130°21'0 0.0
2018-Apr-11 12:30N 54°17' W 130°21'0 0.0
2018-Apr-11 12:00N 54°17' W 130°21'0 0.0
2018-Apr-11 11:30N 54°17' W 130°21'0 0.0
2018-Apr-11 11:00N 54°17' W 130°21'0 0.0
2018-Apr-11 10:30N 54°17' W 130°21'0 0.0
2018-Apr-11 10:00N 54°17' W 130°21'0 0.0
2018-Apr-11 09:29N 54°17' W 130°21'0 0.0
2018-Apr-11 09:00N 54°17' W 130°21'0 0.0
2018-Apr-11 08:30N 54°17' W 130°21'0 0.0
2018-Apr-11 08:00N 54°17' W 130°21'0 0.0
2018-Apr-11 07:30N 54°17' W 130°21'0 0.0
2018-Apr-11 07:00N 54°17' W 130°21'0 0.0
2018-Apr-11 06:27N 54°17' W 130°21'0 0.0
2018-Apr-11 06:00N 54°17' W 130°21'0 0.0
2018-Apr-11 05:30N 54°17' W 130°21'0 0.0
2018-Apr-11 04:59N 54°17' W 130°21'0 0.0
2018-Apr-11 04:28N 54°17' W 130°21'0 0.0
2018-Apr-11 04:00N 54°17' W 130°21'0 0.0
2018-Apr-11 03:30N 54°17' W 130°21'0 0.0
2018-Apr-11 03:00N 54°17' W 130°21'0 0.0
2018-Apr-11 02:30N 54°17' W 130°21'0 0.0
2018-Apr-11 02:00N 54°17' W 130°21'0 0.0
2018-Apr-11 01:30N 54°17' W 130°21'0 0.0
2018-Apr-11 01:00N 54°17' W 130°21'0 0.0
2018-Apr-11 00:30N 54°17' W 130°21'0 0.0
2018-Apr-10 23:57N 54°17' W 130°21'0 0.0
2018-Apr-10 23:30N 54°17' W 130°21'0 0.0
2018-Apr-10 23:00N 54°17' W 130°21'0 0.0
2018-Apr-10 22:30N 54°17' W 130°21'0 0.0
2018-Apr-10 22:00N 54°17' W 130°21'0 0.0
2018-Apr-10 21:30N 54°17' W 130°21'0 0.0
2018-Apr-10 21:00N 54°17' W 130°21'0 0.0
2018-Apr-10 20:30N 54°17' W 130°21'0 0.0
2018-Apr-10 20:00N 54°17' W 130°21'0 0.0
2018-Apr-10 19:30N 54°17' W 130°21'0 0.0
2018-Apr-10 19:00N 54°17' W 130°21'0 0.0
2018-Apr-10 18:28N 54°17' W 130°21'0 0.0
2018-Apr-10 18:00N 54°17' W 130°21'0 0.0
2018-Apr-10 17:30N 54°17' W 130°21'0 0.0
2018-Apr-10 17:00N 54°17' W 130°21'0 0.0
2018-Apr-10 16:30N 54°17' W 130°21'0 0.0
2018-Apr-10 16:00N 54°17' W 130°21'0 0.0
2018-Apr-10 15:31N 54°17' W 130°21'0 0.0
2018-Apr-10 15:00N 54°17' W 130°21'0 0.0
2018-Apr-10 14:30N 54°17' W 130°21'0 0.0
2018-Apr-10 14:00N 54°17' W 130°21'0 0.0
2018-Apr-10 13:30N 54°17' W 130°21'0 0.0
2018-Apr-10 13:00N 54°17' W 130°21'0 0.0
2018-Apr-10 12:30N 54°17' W 130°21'0 0.0
2018-Apr-10 12:00N 54°17' W 130°21'0 0.0
2018-Apr-10 11:30N 54°17' W 130°21'0 0.0
2018-Apr-10 11:00N 54°17' W 130°21'0 0.0
2018-Apr-10 10:30N 54°17' W 130°21'0 0.0
2018-Apr-10 10:00N 54°17' W 130°21'0 0.0
2018-Apr-10 09:30N 54°17' W 130°21'0 0.0
2018-Apr-10 09:00N 54°17' W 130°21'0 0.0
2018-Apr-10 08:30N 54°17' W 130°21'0 0.0
2018-Apr-10 08:00N 54°17' W 130°21'0 0.0
2018-Apr-10 07:30N 54°17' W 130°21'0 0.0
2018-Apr-10 07:00N 54°17' W 130°21'0 0.0
2018-Apr-10 06:30N 54°17' W 130°21'0 0.0
2018-Apr-10 06:00N 54°17' W 130°21'0 0.0
2018-Apr-10 05:28N 54°17' W 130°21'0 0.0
2018-Apr-10 05:00N 54°17' W 130°21'0 0.0
2018-Apr-10 04:30N 54°17' W 130°21'0 0.0
2018-Apr-10 04:00N 54°17' W 130°21'0 0.0
2018-Apr-10 03:30N 54°17' W 130°21'0 0.0
2018-Apr-10 02:59N 54°17' W 130°21'0 0.0
2018-Apr-10 02:30N 54°17' W 130°21'0 0.1
2018-Apr-10 02:00N 54°17' W 130°21'0 0.1
2018-Apr-10 01:30N 54°17' W 130°21'0 0.0
2018-Apr-10 01:00N 54°17' W 130°21'0 0.0
2018-Apr-10 00:30N 54°17' W 130°21'0 0.0
2018-Apr-10 00:00N 54°17' W 130°21'0 0.0
2018-Apr-09 23:29N 54°17' W 130°21'0 0.0
2018-Apr-09 22:46N 54°17' W 130°21'0 0.0
2018-Apr-09 22:30N 54°17' W 130°21'0 0.0
2018-Apr-09 22:00N 54°17' W 130°21'0 0.0
2018-Apr-09 21:30N 54°17' W 130°21'0 0.0
2018-Apr-09 21:00N 54°17' W 130°21'0 0.0
2018-Apr-09 20:30N 54°17' W 130°21'0 0.0
2018-Apr-09 20:00N 54°17' W 130°21'0 0.0
2018-Apr-09 19:30N 54°17' W 130°21'0 0.0
2018-Apr-09 19:00N 54°17' W 130°21'0 0.0
2018-Apr-09 18:29N 54°17' W 130°21'0 0.0
2018-Apr-09 17:59N 54°17' W 130°21'0 0.0
2018-Apr-09 17:26N 54°17' W 130°21'0 0.0
2018-Apr-09 16:07N 54°17' W 130°21'0 0.0
2018-Apr-09 15:57N 54°17' W 130°21'0 0.0
2018-Apr-09 15:23N 54°17' W 130°21'0 0.0
2018-Apr-09 14:48N 54°17' W 130°21'0 0.0
2018-Apr-09 14:26N 54°17' W 130°21'0 0.0
2018-Apr-09 13:15N 54°17' W 130°21'0 0.0
2018-Apr-09 13:00N 54°17' W 130°21'0 0.0
2018-Apr-09 12:10N 54°17' W 130°21'0 0.0
2018-Apr-09 11:59N 54°17' W 130°21'0 0.0
2018-Apr-09 11:30N 54°17' W 130°21'0 0.0
2018-Apr-09 11:00N 54°17' W 130°21'0 0.0
2018-Apr-09 10:29N 54°17' W 130°21'0 0.0
2018-Apr-09 09:58N 54°17' W 130°21'0 0.0
2018-Apr-09 06:37N 54°17' W 130°21'0 0.0
2018-Apr-09 06:30N 54°17' W 130°21'0 0.0
2018-Apr-09 05:59N 54°17' W 130°21'0 0.0
2018-Apr-09 03:22N 54°17' W 130°21'0 0.0
2018-Apr-09 02:58N 54°17' W 130°21'0 0.0
2018-Apr-09 02:28N 54°17' W 130°21'0 0.0
2018-Apr-08 23:28N 54°17' W 130°21'0 0.0
2018-Apr-08 22:55N 54°17' W 130°21'0 0.0
2018-Apr-08 22:26N 54°17' W 130°21'0 0.0
2018-Apr-08 22:00N 54°17' W 130°21'0 0.0
2018-Apr-08 21:28N 54°17' W 130°21'0 0.0
2018-Apr-08 21:00N 54°17' W 130°21'0 0.0
2018-Apr-08 20:29N 54°17' W 130°21'0 0.0
2018-Apr-08 20:01N 54°17' W 130°21'0 0.0
2018-Apr-08 19:15N 54°17' W 130°21'0 0.0
2018-Apr-08 16:27N 54°17' W 130°21'0 0.0
2018-Apr-08 15:57N 54°17' W 130°21'0 0.0
2018-Apr-08 15:28N 54°17' W 130°21'0 0.0
2018-Apr-08 14:55N 54°17' W 130°21'0 0.0
2018-Apr-08 10:52N 54°17' W 130°21'0 0.0
2018-Apr-08 10:28N 54°17' W 130°21'0 0.0
2018-Apr-08 09:58N 54°17' W 130°21'0 0.0
2018-Apr-08 09:27N 54°17' W 130°21'0 0.0
2018-Apr-08 08:59N 54°17' W 130°21'0 0.0
2018-Apr-07 23:17N 54°17' W 130°21'0 0.0
2018-Apr-07 22:32N 54°17' W 130°21'0 0.0
2018-Apr-07 22:29N 54°17' W 130°21'0 0.0
2018-Apr-07 22:00N 54°17' W 130°21'0 0.0
2018-Apr-07 21:30N 54°17' W 130°21'0 0.0
2018-Apr-07 21:00N 54°17' W 130°21'0 0.0
2018-Apr-07 20:29N 54°17' W 130°21'0 0.0
2018-Apr-07 20:00N 54°17' W 130°21'0 0.0
2018-Apr-07 19:30N 54°17' W 130°21'0 0.0
2018-Apr-07 19:00N 54°17' W 130°21'0 0.0
2018-Apr-07 18:26N 54°17' W 130°21'0 0.0
2018-Apr-07 18:00N 54°17' W 130°21'0 0.0
2018-Apr-07 17:29N 54°17' W 130°21'0 0.0
2018-Apr-07 16:47N 54°17' W 130°21'0 0.0
2018-Apr-07 16:18N 54°17' W 130°21'0 0.0
2018-Apr-07 15:51N 54°17' W 130°21'0 0.0
2018-Apr-07 15:20N 54°17' W 130°21'0 0.0
2018-Apr-07 13:26N 54°17' W 130°21'  
Track history (hours):
 
Tides and Currents Weather Stations Pressure Air Temp Water Temp Dewpoint Dewpoint Depression Visibility Wind Speed Wind Dir Waves Ship Positions

Westerly

Last reported at 2018-Apr-17 09:54 UTC. Time now 2018-Apr-21 04:10 UTC.
Position N 53°51' W 130°03'.

Length 17 m; draft 3 m.

Type: Fishing. MMSI: 316003050.

Date/timePositionNaut miles runAvg speedWind from/ knotsBaromVisibWave heightAir tempDewpointWater temp
2018-Apr-17 09:54N 53°51' W 130°03'3 7.7
2018-Apr-17 09:31N 53°53' W 130°07'4 7.2
2018-Apr-17 09:01N 53°56' W 130°11'4 7.4
2018-Apr-17 08:31N 53°59' W 130°13'3 6.6
2018-Apr-17 08:01N 54°02' W 130°15'4 7.3
2018-Apr-17 07:31N 54°06' W 130°18'4 7.3
2018-Apr-17 07:00N 54°09' W 130°20'3 5.5
2018-Apr-17 06:30N 54°12' W 130°19'2 3.8
2018-Apr-17 06:00N 54°14' W 130°18'0 0.0
2018-Apr-17 05:30N 54°14' W 130°18'0 0.0
2018-Apr-17 05:00N 54°14' W 130°18'0 0.0
2018-Apr-17 04:30N 54°14' W 130°18'0 0.0
2018-Apr-17 04:00N 54°14' W 130°18'0 0.0
2018-Apr-17 03:30N 54°14' W 130°18'0 0.0
2018-Apr-17 03:01N 54°14' W 130°18'0 0.0
2018-Apr-17 02:31N 54°14' W 130°18'0 0.0
2018-Apr-17 02:00N 54°14' W 130°18'0 0.0
2018-Apr-17 01:30N 54°14' W 130°18'0 0.0
2018-Apr-17 01:00N 54°14' W 130°18'0 0.0
2018-Apr-17 00:30N 54°14' W 130°18'0 0.1
2018-Apr-17 00:01N 54°14' W 130°18'1 1.6
2018-Apr-16 23:29N 54°13' W 130°17'0 0.0
2018-Apr-16 23:00N 54°13' W 130°17'0 0.0
2018-Apr-16 22:30N 54°13' W 130°17'0 0.0
2018-Apr-16 22:00N 54°13' W 130°17'0 0.0
2018-Apr-16 21:31N 54°13' W 130°17'1 1.6
2018-Apr-16 21:01N 54°14' W 130°18'0 0.0
2018-Apr-16 20:30N 54°14' W 130°18'0 0.0
2018-Apr-16 20:00N 54°14' W 130°18'0 0.0
2018-Apr-16 19:30N 54°14' W 130°18'0 0.0
2018-Apr-16 19:00N 54°14' W 130°18'0 0.0
2018-Apr-16 18:30N 54°14' W 130°18'0 0.0
2018-Apr-16 18:01N 54°14' W 130°18'0 0.0
2018-Apr-16 17:30N 54°14' W 130°18'0 0.0
2018-Apr-16 16:59N 54°14' W 130°18'0 0.0
2018-Apr-16 16:30N 54°14' W 130°18'0 0.0
2018-Apr-16 16:01N 54°14' W 130°18'0 0.0
2018-Apr-16 15:30N 54°14' W 130°18'0 0.0
2018-Apr-16 14:59N 54°14' W 130°18'0 0.0
2018-Apr-16 14:31N 54°14' W 130°18'0 0.0
2018-Apr-16 14:00N 54°14' W 130°18'0 0.0
2018-Apr-16 13:30N 54°14' W 130°18'0 0.0
2018-Apr-16 13:01N 54°14' W 130°18'0 0.0
2018-Apr-16 12:30N 54°14' W 130°18'0 0.0
2018-Apr-16 12:01N 54°14' W 130°18'0 0.0
2018-Apr-16 11:31N 54°14' W 130°18'0 0.0
2018-Apr-16 11:00N 54°14' W 130°18'0 0.0
2018-Apr-16 10:30N 54°14' W 130°18'0 0.0
2018-Apr-16 10:01N 54°14' W 130°18'0 0.0
2018-Apr-16 09:30N 54°14' W 130°18'0 0.0
2018-Apr-16 09:00N 54°14' W 130°18'0 0.0
2018-Apr-16 08:31N 54°14' W 130°18'0 0.0
2018-Apr-16 08:00N 54°14' W 130°18'0 0.0
2018-Apr-16 07:30N 54°14' W 130°18'0 0.0
2018-Apr-16 07:00N 54°14' W 130°18'0 0.0
2018-Apr-16 06:29N 54°14' W 130°18'0 0.0
2018-Apr-16 06:00N 54°14' W 130°18'0 0.0
2018-Apr-16 05:31N 54°14' W 130°18'0 0.0
2018-Apr-16 05:00N 54°14' W 130°18'0 0.0
2018-Apr-16 04:29N 54°14' W 130°18'0 0.0
2018-Apr-16 04:01N 54°14' W 130°18'0 0.0
2018-Apr-16 03:30N 54°14' W 130°18'0 0.0
2018-Apr-16 03:00N 54°14' W 130°18'0 0.0
2018-Apr-16 02:30N 54°14' W 130°18'0 0.0
2018-Apr-16 02:00N 54°14' W 130°18'0 0.0
2018-Apr-16 01:30N 54°14' W 130°18'0 0.0
2018-Apr-16 01:00N 54°14' W 130°18'0 0.0
2018-Apr-16 00:31N 54°14' W 130°18'0 0.0
2018-Apr-16 00:00N 54°14' W 130°18'0 0.0
2018-Apr-15 23:31N 54°14' W 130°18'0 0.0
2018-Apr-15 23:00N 54°14' W 130°18'1 1.6
2018-Apr-15 22:30N 54°13' W 130°17'0 0.0
2018-Apr-15 22:00N 54°13' W 130°17'0 0.1
2018-Apr-15 21:30N 54°13' W 130°17'2 3.9
2018-Apr-15 21:00N 54°13' W 130°21'3 6.7
2018-Apr-15 20:30N 54°17' W 130°22'1 0.4
2018-Apr-15 18:38N 54°17' W 130°21'0 0.0
2018-Apr-15 18:28N 54°17' W 130°21'0 0.0
2018-Apr-15 17:59N 54°17' W 130°21'0 0.0
2018-Apr-15 17:30N 54°17' W 130°21'0 0.0
2018-Apr-15 17:00N 54°17' W 130°21'0 0.0
2018-Apr-15 16:30N 54°17' W 130°21'0 0.0
2018-Apr-15 16:00N 54°17' W 130°21'0 0.0
2018-Apr-15 15:30N 54°17' W 130°21'0 0.0
2018-Apr-15 15:00N 54°17' W 130°21'0 0.0
2018-Apr-15 14:30N 54°17' W 130°21'0 0.0
2018-Apr-15 14:00N 54°17' W 130°21'0 0.0
2018-Apr-15 13:30N 54°17' W 130°21'0 0.0
2018-Apr-15 13:00N 54°17' W 130°21'0 0.0
2018-Apr-15 12:29N 54°17' W 130°21'0 0.0
2018-Apr-15 10:21N 54°17' W 130°21'0 0.0
2018-Apr-15 10:00N 54°17' W 130°21'0 0.0
2018-Apr-15 09:29N 54°17' W 130°21'0 0.0
2018-Apr-15 08:59N 54°17' W 130°21'0 0.0
2018-Apr-15 08:28N 54°17' W 130°21'0 0.0
2018-Apr-15 02:14N 54°17' W 130°21'0 0.0
2018-Apr-15 02:00N 54°17' W 130°21'0 0.0
2018-Apr-15 01:28N 54°17' W 130°21'0 0.0
2018-Apr-14 22:19N 54°17' W 130°21'0 0.0
2018-Apr-14 21:36N 54°17' W 130°21'0 0.0
2018-Apr-14 19:54N 54°17' W 130°21'0 0.0
2018-Apr-14 10:40N 54°17' W 130°21'0 0.0
2018-Apr-14 10:16N 54°17' W 130°21'0 0.0
2018-Apr-14 09:50N 54°17' W 130°21'0 0.0
2018-Apr-14 09:23N 54°17' W 130°21'0 0.0
2018-Apr-14 08:59N 54°17' W 130°21'0 0.0
2018-Apr-14 08:30N 54°17' W 130°21'0 0.0
2018-Apr-14 07:59N 54°17' W 130°21'0 0.0
2018-Apr-14 07:07N 54°17' W 130°21'0 0.0
2018-Apr-14 06:58N 54°17' W 130°21'0 0.0
2018-Apr-14 06:29N 54°17' W 130°21'0 0.0
2018-Apr-14 06:01N 54°17' W 130°21'0 0.0
2018-Apr-14 03:12N 54°17' W 130°21'0 0.0
2018-Apr-14 02:56N 54°17' W 130°21'0 0.0
2018-Apr-14 02:26N 54°17' W 130°21'0 0.0
2018-Apr-14 01:59N 54°17' W 130°21'0 0.0
2018-Apr-14 01:27N 54°17' W 130°21'0 0.0
2018-Apr-14 00:59N 54°17' W 130°21'0 0.0
2018-Apr-14 00:29N 54°17' W 130°21'0 0.0
2018-Apr-14 00:00N 54°17' W 130°21'0 0.0
2018-Apr-13 23:28N 54°17' W 130°21'0 0.0
2018-Apr-13 21:47N 54°17' W 130°21'2 5.9
2018-Apr-13 21:30N 54°19' W 130°20'1 1.0
2018-Apr-13 20:54N 54°19' W 130°19'0 0.0
2018-Apr-13 20:30N 54°19' W 130°19'0 0.0
2018-Apr-13 20:00N 54°19' W 130°19'0 0.1
2018-Apr-13 19:30N 54°19' W 130°19'0 0.2
2018-Apr-13 18:59N 54°19' W 130°19'0 0.1
2018-Apr-13 18:31N 54°19' W 130°19'0 0.1
2018-Apr-13 18:00N 54°19' W 130°19'2 4.4
2018-Apr-13 17:30N 54°18' W 130°21'0 0.2
2018-Apr-13 16:30N 54°17' W 130°21'0 0.0
2018-Apr-13 16:00N 54°17' W 130°21'0 0.0
2018-Apr-13 15:28N 54°17' W 130°21'0 0.0
2018-Apr-13 14:49N 54°17' W 130°21'0 0.0
2018-Apr-13 14:28N 54°17' W 130°21'0 0.0
2018-Apr-13 14:00N 54°17' W 130°21'0 0.0
2018-Apr-13 13:30N 54°17' W 130°21'0 0.0
2018-Apr-13 12:59N 54°17' W 130°21'0 0.0
2018-Apr-13 12:23N 54°17' W 130°21'0 0.0
2018-Apr-13 12:00N 54°17' W 130°21'0 0.0
2018-Apr-13 11:30N 54°17' W 130°21'0 0.0
2018-Apr-13 11:00N 54°17' W 130°21'0 0.0
2018-Apr-13 10:28N 54°17' W 130°21'0 0.0
2018-Apr-13 10:00N 54°17' W 130°21'0 0.0
2018-Apr-13 09:30N 54°17' W 130°21'0 0.0
2018-Apr-13 08:59N 54°17' W 130°21'0 0.0
2018-Apr-13 08:30N 54°17' W 130°21'0 0.0
2018-Apr-13 08:00N 54°17' W 130°21'0 0.0
2018-Apr-13 07:30N 54°17' W 130°21'0 0.0
2018-Apr-13 07:00N 54°17' W 130°21'0 0.0
2018-Apr-13 06:30N 54°17' W 130°21'0 0.0
2018-Apr-13 06:00N 54°17' W 130°21'0 0.0
2018-Apr-13 05:30N 54°17' W 130°21'0 0.0
2018-Apr-13 05:00N 54°17' W 130°21'0 0.0
2018-Apr-13 04:29N 54°17' W 130°21'0 0.0
2018-Apr-13 04:00N 54°17' W 130°21'0 0.0
2018-Apr-13 03:30N 54°17' W 130°21'0 0.0
2018-Apr-13 03:00N 54°17' W 130°21'0 0.0
2018-Apr-13 02:26N 54°17' W 130°21'0 0.0
2018-Apr-13 02:00N 54°17' W 130°21'0 0.0
2018-Apr-13 01:29N 54°17' W 130°21'0 0.0
2018-Apr-13 01:00N 54°17' W 130°21'0 0.0
2018-Apr-13 00:27N 54°17' W 130°21'0 0.0
2018-Apr-13 00:00N 54°17' W 130°21'0 0.0
2018-Apr-12 23:30N 54°17' W 130°21'0 0.0
2018-Apr-12 23:00N 54°17' W 130°21'0 0.0
2018-Apr-12 22:30N 54°17' W 130°21'0 0.0
2018-Apr-12 22:00N 54°17' W 130°21'0 0.0
2018-Apr-12 21:30N 54°17' W 130°21'0 0.0
2018-Apr-12 21:00N 54°17' W 130°21'0 0.0
2018-Apr-12 20:30N 54°17' W 130°21'0 0.0
2018-Apr-12 20:00N 54°17' W 130°21'0 0.0
2018-Apr-12 19:30N 54°17' W 130°21'0 0.0
2018-Apr-12 18:59N 54°17' W 130°21'0 0.0
2018-Apr-12 18:29N 54°17' W 130°21'0 0.0
2018-Apr-12 18:00N 54°17' W 130°21'0 0.0
2018-Apr-12 17:30N 54°17' W 130°21'0 0.0
2018-Apr-12 17:00N 54°17' W 130°21'0 0.0
2018-Apr-12 16:29N 54°17' W 130°21'0 0.0
2018-Apr-12 16:00N 54°17' W 130°21'0 0.0
2018-Apr-12 15:30N 54°17' W 130°21'0 0.0
2018-Apr-12 15:00N 54°17' W 130°21'0 0.0
2018-Apr-12 14:30N 54°17' W 130°21'0 0.0
2018-Apr-12 14:00N 54°17' W 130°21'0 0.0
2018-Apr-12 13:29N 54°17' W 130°21'0 0.0
2018-Apr-12 13:00N 54°17' W 130°21'0 0.0
2018-Apr-12 12:29N 54°17' W 130°21'0 0.0
2018-Apr-12 12:00N 54°17' W 130°21'0 0.0
2018-Apr-12 11:30N 54°17' W 130°21'0 0.0
2018-Apr-12 11:00N 54°17' W 130°21'0 0.0
2018-Apr-12 10:30N 54°17' W 130°21'0 0.0
2018-Apr-12 10:00N 54°17' W 130°21'0 0.0
2018-Apr-12 09:30N 54°17' W 130°21'0 0.0
2018-Apr-12 09:00N 54°17' W 130°21'0 0.0
2018-Apr-12 08:28N 54°17' W 130°21'0 0.0
2018-Apr-12 08:00N 54°17' W 130°21'0 0.0
2018-Apr-12 07:30N 54°17' W 130°21'0 0.0
2018-Apr-12 07:00N 54°17' W 130°21'0 0.0
2018-Apr-12 06:30N 54°17' W 130°21'0 0.0
2018-Apr-12 06:00N 54°17' W 130°21'0 0.0
2018-Apr-12 05:30N 54°17' W 130°21'0 0.0
2018-Apr-12 05:00N 54°17' W 130°21'0 0.0
2018-Apr-12 04:30N 54°17' W 130°21'0 0.0
2018-Apr-12 04:00N 54°17' W 130°21'0 0.0
2018-Apr-12 03:30N 54°17' W 130°21'0 0.0
2018-Apr-12 03:00N 54°17' W 130°21'0 0.0
2018-Apr-12 02:30N 54°17' W 130°21'0 0.0
2018-Apr-12 02:00N 54°17' W 130°21'0 0.0
2018-Apr-12 01:30N 54°17' W 130°21'0 0.0
2018-Apr-12 00:58N 54°17' W 130°21'0 0.0
2018-Apr-12 00:30N 54°17' W 130°21'0 0.0
2018-Apr-12 00:00N 54°17' W 130°21'0 0.0
2018-Apr-11 23:29N 54°17' W 130°21'0 0.0
2018-Apr-11 23:00N 54°17' W 130°21'0 0.0
2018-Apr-11 22:30N 54°17' W 130°21'0 0.0
2018-Apr-11 21:59N 54°17' W 130°21'0 0.0
2018-Apr-11 21:30N 54°17' W 130°21'0 0.0
2018-Apr-11 21:00N 54°17' W 130°21'0 0.0
2018-Apr-11 20:30N 54°17' W 130°21'0 0.0
2018-Apr-11 20:00N 54°17' W 130°21'0 0.0
2018-Apr-11 19:29N 54°17' W 130°21'0 0.0
2018-Apr-11 19:00N 54°17' W 130°21'0 0.0
2018-Apr-11 18:30N 54°17' W 130°21'0 0.0
2018-Apr-11 18:00N 54°17' W 130°21'0 0.0
2018-Apr-11 17:30N 54°17' W 130°21'0 0.0
2018-Apr-11 16:58N 54°17' W 130°21'0 0.0
2018-Apr-11 16:30N 54°17' W 130°21'0 0.0
2018-Apr-11 16:00N 54°17' W 130°21'0 0.0
2018-Apr-11 15:30N 54°17' W 130°21'0 0.0
2018-Apr-11 15:00N 54°17' W 130°21'0 0.0
2018-Apr-11 14:30N 54°17' W 130°21'0 0.0
2018-Apr-11 13:59N 54°17' W 130°21'0 0.0
2018-Apr-11 13:30N 54°17' W 130°21'0 0.0
2018-Apr-11 13:00N 54°17' W 130°21'0 0.0
2018-Apr-11 12:30N 54°17' W 130°21'0 0.0
2018-Apr-11 12:00N 54°17' W 130°21'0 0.0
2018-Apr-11 11:30N 54°17' W 130°21'0 0.0
2018-Apr-11 11:00N 54°17' W 130°21'0 0.0
2018-Apr-11 10:30N 54°17' W 130°21'0 0.0
2018-Apr-11 10:00N 54°17' W 130°21'0 0.0
2018-Apr-11 09:29N 54°17' W 130°21'0 0.0
2018-Apr-11 09:00N 54°17' W 130°21'0 0.0
2018-Apr-11 08:30N 54°17' W 130°21'0 0.0
2018-Apr-11 08:00N 54°17' W 130°21'0 0.0
2018-Apr-11 07:30N 54°17' W 130°21'0 0.0
2018-Apr-11 07:00N 54°17' W 130°21'0 0.0
2018-Apr-11 06:27N 54°17' W 130°21'0 0.0
2018-Apr-11 06:00N 54°17' W 130°21'0 0.0
2018-Apr-11 05:30N 54°17' W 130°21'0 0.0
2018-Apr-11 04:59N 54°17' W 130°21'0 0.0
2018-Apr-11 04:28N 54°17' W 130°21'0 0.0
2018-Apr-11 04:00N 54°17' W 130°21'0 0.0
2018-Apr-11 03:30N 54°17' W 130°21'0 0.0
2018-Apr-11 03:00N 54°17' W 130°21'0 0.0
2018-Apr-11 02:30N 54°17' W 130°21'0 0.0
2018-Apr-11 02:00N 54°17' W 130°21'0 0.0
2018-Apr-11 01:30N 54°17' W 130°21'0 0.0
2018-Apr-11 01:00N 54°17' W 130°21'0 0.0
2018-Apr-11 00:30N 54°17' W 130°21'0 0.0
2018-Apr-10 23:57N 54°17' W 130°21'0 0.0
2018-Apr-10 23:30N 54°17' W 130°21'0 0.0
2018-Apr-10 23:00N 54°17' W 130°21'0 0.0
2018-Apr-10 22:30N 54°17' W 130°21'0 0.0
2018-Apr-10 22:00N 54°17' W 130°21'0 0.0
2018-Apr-10 21:30N 54°17' W 130°21'0 0.0
2018-Apr-10 21:00N 54°17' W 130°21'0 0.0
2018-Apr-10 20:30N 54°17' W 130°21'0 0.0
2018-Apr-10 20:00N 54°17' W 130°21'0 0.0
2018-Apr-10 19:30N 54°17' W 130°21'0 0.0
2018-Apr-10 19:00N 54°17' W 130°21'0 0.0
2018-Apr-10 18:28N 54°17' W 130°21'0 0.0
2018-Apr-10 18:00N 54°17' W 130°21'0 0.0
2018-Apr-10 17:30N 54°17' W 130°21'0 0.0
2018-Apr-10 17:00N 54°17' W 130°21'0 0.0
2018-Apr-10 16:30N 54°17' W 130°21'0 0.0
2018-Apr-10 16:00N 54°17' W 130°21'0 0.0
2018-Apr-10 15:31N 54°17' W 130°21'0 0.0
2018-Apr-10 15:00N 54°17' W 130°21'0 0.0
2018-Apr-10 14:30N 54°17' W 130°21'0 0.0
2018-Apr-10 14:00N 54°17' W 130°21'0 0.0
2018-Apr-10 13:30N 54°17' W 130°21'0 0.0
2018-Apr-10 13:00N 54°17' W 130°21'0 0.0
2018-Apr-10 12:30N 54°17' W 130°21'0 0.0
2018-Apr-10 12:00N 54°17' W 130°21'0 0.0
2018-Apr-10 11:30N 54°17' W 130°21'0 0.0
2018-Apr-10 11:00N 54°17' W 130°21'0 0.0
2018-Apr-10 10:30N 54°17' W 130°21'0 0.0
2018-Apr-10 10:00N 54°17' W 130°21'0 0.0
2018-Apr-10 09:30N 54°17' W 130°21'0 0.0
2018-Apr-10 09:00N 54°17' W 130°21'0 0.0
2018-Apr-10 08:30N 54°17' W 130°21'0 0.0
2018-Apr-10 08:00N 54°17' W 130°21'0 0.0
2018-Apr-10 07:30N 54°17' W 130°21'0 0.0
2018-Apr-10 07:00N 54°17' W 130°21'0 0.0
2018-Apr-10 06:30N 54°17' W 130°21'0 0.0
2018-Apr-10 06:00N 54°17' W 130°21'0 0.0
2018-Apr-10 05:28N 54°17' W 130°21'0 0.0
2018-Apr-10 05:00N 54°17' W 130°21'0 0.0
2018-Apr-10 04:30N 54°17' W 130°21'0 0.0
2018-Apr-10 04:00N 54°17' W 130°21'0 0.0
2018-Apr-10 03:30N 54°17' W 130°21'0 0.0
2018-Apr-10 02:59N 54°17' W 130°21'0 0.0
2018-Apr-10 02:30N 54°17' W 130°21'0 0.1
2018-Apr-10 02:00N 54°17' W 130°21'0 0.1
2018-Apr-10 01:30N 54°17' W 130°21'0 0.0
2018-Apr-10 01:00N 54°17' W 130°21'0 0.0
2018-Apr-10 00:30N 54°17' W 130°21'0 0.0
2018-Apr-10 00:00N 54°17' W 130°21'0 0.0
2018-Apr-09 23:29N 54°17' W 130°21'0 0.0
2018-Apr-09 22:46N 54°17' W 130°21'0 0.0
2018-Apr-09 22:30N 54°17' W 130°21'0 0.0
2018-Apr-09 22:00N 54°17' W 130°21'0 0.0
2018-Apr-09 21:30N 54°17' W 130°21'0 0.0
2018-Apr-09 21:00N 54°17' W 130°21'0 0.0
2018-Apr-09 20:30N 54°17' W 130°21'0 0.0
2018-Apr-09 20:00N 54°17' W 130°21'0 0.0
2018-Apr-09 19:30N 54°17' W 130°21'0 0.0
2018-Apr-09 19:00N 54°17' W 130°21'0 0.0
2018-Apr-09 18:29N 54°17' W 130°21'0 0.0
2018-Apr-09 17:59N 54°17' W 130°21'0 0.0
2018-Apr-09 17:26N 54°17' W 130°21'0 0.0
2018-Apr-09 16:07N 54°17' W 130°21'0 0.0
2018-Apr-09 15:57N 54°17' W 130°21'0 0.0
2018-Apr-09 15:23N 54°17' W 130°21'0 0.0
2018-Apr-09 14:48N 54°17' W 130°21'0 0.0
2018-Apr-09 14:26N 54°17' W 130°21'0 0.0
2018-Apr-09 13:15N 54°17' W 130°21'0 0.0
2018-Apr-09 13:00N 54°17' W 130°21'0 0.0
2018-Apr-09 12:10N 54°17' W 130°21'0 0.0
2018-Apr-09 11:59N 54°17' W 130°21'0 0.0
2018-Apr-09 11:30N 54°17' W 130°21'0 0.0
2018-Apr-09 11:00N 54°17' W 130°21'0 0.0
2018-Apr-09 10:29N 54°17' W 130°21'0 0.0
2018-Apr-09 09:58N 54°17' W 130°21'0 0.0
2018-Apr-09 06:37N 54°17' W 130°21'0 0.0
2018-Apr-09 06:30N 54°17' W 130°21'0 0.0
2018-Apr-09 05:59N 54°17' W 130°21'0 0.0
2018-Apr-09 03:22N 54°17' W 130°21'0 0.0
2018-Apr-09 02:58N 54°17' W 130°21'0 0.0
2018-Apr-09 02:28N 54°17' W 130°21'0 0.0
2018-Apr-08 23:28N 54°17' W 130°21'0 0.0
2018-Apr-08 22:55N 54°17' W 130°21'0 0.0
2018-Apr-08 22:26N 54°17' W 130°21'0 0.0
2018-Apr-08 22:00N 54°17' W 130°21'0 0.0
2018-Apr-08 21:28N 54°17' W 130°21'0 0.0
2018-Apr-08 21:00N 54°17' W 130°21'0 0.0
2018-Apr-08 20:29N 54°17' W 130°21'0 0.0
2018-Apr-08 20:01N 54°17' W 130°21'0 0.0
2018-Apr-08 19:15N 54°17' W 130°21'0 0.0
2018-Apr-08 16:27N 54°17' W 130°21'0 0.0
2018-Apr-08 15:57N 54°17' W 130°21'0 0.0
2018-Apr-08 15:28N 54°17' W 130°21'0 0.0
2018-Apr-08 14:55N 54°17' W 130°21'0 0.0
2018-Apr-08 10:52N 54°17' W 130°21'0 0.0
2018-Apr-08 10:28N 54°17' W 130°21'0 0.0
2018-Apr-08 09:58N 54°17' W 130°21'0 0.0
2018-Apr-08 09:27N 54°17' W 130°21'0 0.0
2018-Apr-08 08:59N 54°17' W 130°21'0 0.0
2018-Apr-07 23:17N 54°17' W 130°21'0 0.0
2018-Apr-07 22:32N 54°17' W 130°21'0 0.0
2018-Apr-07 22:29N 54°17' W 130°21'0 0.0
2018-Apr-07 22:00N 54°17' W 130°21'0 0.0
2018-Apr-07 21:30N 54°17' W 130°21'0 0.0
2018-Apr-07 21:00N 54°17' W 130°21'0 0.0
2018-Apr-07 20:29N 54°17' W 130°21'0 0.0
2018-Apr-07 20:00N 54°17' W 130°21'0 0.0
2018-Apr-07 19:30N 54°17' W 130°21'0 0.0
2018-Apr-07 19:00N 54°17' W 130°21'0 0.0
2018-Apr-07 18:26N 54°17' W 130°21'0 0.0
2018-Apr-07 18:00N 54°17' W 130°21'0 0.0
2018-Apr-07 17:29N 54°17' W 130°21'0 0.0
2018-Apr-07 16:47N 54°17' W 130°21'0 0.0
2018-Apr-07 16:18N 54°17' W 130°21'0 0.0
2018-Apr-07 15:51N 54°17' W 130°21'0 0.0
2018-Apr-07 15:20N 54°17' W 130°21'0 0.0
2018-Apr-07 13:26N 54°17' W 130°21'  

Dump ship's entire track history